Time;durP1;ratioP1;P1;durP2;ratioP2;P2;SDS_P1;SDS_P2;PMS_P1;PMS_P2;Temp;Humidity;BMP_temperature;BMP_pressure;BME280_temperature;BME280_humidity;BME280_pressure;Samples;Min_cycle;Max_cycle;Signal;HPM_P1;HPM_P2
2021/09/20 00:01:00;;;;;;;9.17;6.70;;;17.10;69.90;;;;;;4985958;28;20191;-90
2021/09/20 00:03:26;;;;;;;7.43;6.10;;;17.10;69.90;;;;;;4985056;28;20200;-90
2021/09/20 00:05:52;;;;;;;9.37;7.63;;;17.00;70.10;;;;;;4981759;28;20489;-90
2021/09/20 00:08:17;;;;;;;9.20;7.40;;;17.00;70.20;;;;;;4982069;28;20207;-90
2021/09/20 00:10:43;;;;;;;10.37;8.07;;;17.00;70.20;;;;;;4981979;28;20180;-90
2021/09/20 00:13:09;;;;;;;8.77;7.10;;;16.80;70.50;;;;;;4979779;28;20207;-90
2021/09/20 00:15:35;;;;;;;11.27;6.80;;;16.90;70.70;;;;;;4978565;28;20431;-90
2021/09/20 00:18:03;;;;;;;10.47;8.37;;;16.90;70.50;;;;;;4960785;28;20203;-90
2021/09/20 00:20:28;;;;;;;11.23;9.63;;;17.00;70.50;;;;;;4977317;28;20183;-90
2021/09/20 00:22:57;;;;;;;12.80;8.30;;;16.90;70.60;;;;;;4976978;28;20671;-90
2021/09/20 00:25:23;;;;;;;10.38;8.60;;;16.70;71.40;;;;;;4976962;28;20187;-90
2021/09/20 00:27:52;;;;;;;9.67;7.40;;;16.70;71.40;;;;;;4977643;28;20272;-90
2021/09/20 00:30:18;;;;;;;11.13;7.07;;;16.70;71.20;;;;;;4976984;28;20203;-90
2021/09/20 00:32:44;;;;;;;9.07;8.13;;;16.70;71.20;;;;;;4967764;28;20208;-90
2021/09/20 00:35:10;;;;;;;10.73;8.40;;;16.70;71.10;;;;;;4957556;28;20199;-90
2021/09/20 00:37:35;;;;;;;9.90;7.63;;;16.80;71.00;;;;;;4976709;28;20449;-90
2021/09/20 00:40:02;;;;;;;8.57;7.20;;;16.80;70.80;;;;;;4977408;28;20475;-90
2021/09/20 00:42:28;;;;;;;11.00;7.75;;;16.70;70.80;;;;;;4976376;28;20196;-90
2021/09/20 00:44:53;;;;;;;14.77;8.17;;;16.80;70.80;;;;;;4979015;28;20207;-90
2021/09/20 00:47:19;;;;;;;13.27;8.57;;;16.70;71.00;;;;;;4977154;28;20712;-89
2021/09/20 00:49:45;;;;;;;10.20;7.80;;;16.70;70.80;;;;;;4976663;28;20184;-90
2021/09/20 00:52:10;;;;;;;11.20;8.47;;;16.70;71.10;;;;;;4978648;28;20180;-90
2021/09/20 00:54:36;;;;;;;11.57;7.73;;;16.50;71.10;;;;;;4978089;28;20172;-90
2021/09/20 00:57:03;;;;;;;9.53;8.17;;;16.50;71.30;;;;;;4977345;28;20180;-90
2021/09/20 00:59:30;;;;;;;12.98;8.30;;;16.50;71.60;;;;;;4976525;28;20204;-90
2021/09/20 01:01:55;;;;;;;11.23;7.72;;;16.50;71.60;;;;;;4976077;28;20202;-90
2021/09/20 01:04:21;;;;;;;11.33;7.73;;;16.50;71.50;;;;;;4976227;28;20675;-91
2021/09/20 01:06:47;;;;;;;9.60;7.73;;;16.40;71.50;;;;;;4976628;28;20160;-90
2021/09/20 01:09:15;;;;;;;9.80;8.80;;;16.40;71.60;;;;;;4976426;28;20179;-91
2021/09/20 01:11:43;;;;;;;12.85;8.35;;;16.40;71.70;;;;;;4976342;28;20510;-90
2021/09/20 01:14:08;;;;;;;13.25;9.55;;;16.40;71.60;;;;;;4977502;28;20204;-90
2021/09/20 01:16:36;;;;;;;11.10;8.50;;;16.30;71.80;;;;;;4979476;28;20180;-90
2021/09/20 01:19:03;;;;;;;10.85;8.23;;;16.20;72.30;;;;;;4977099;28;20644;-90
2021/09/20 01:21:28;;;;;;;13.48;9.27;;;16.20;72.40;;;;;;4977733;28;20664;-90
2021/09/20 01:23:54;;;;;;;9.17;7.50;;;16.30;72.20;;;;;;4981153;28;20353;-90
2021/09/20 01:26:20;;;;;;;14.60;8.23;;;16.30;72.10;;;;;;4977501;28;20215;-90
2021/09/20 01:28:48;;;;;;;10.07;8.07;;;16.30;71.80;;;;;;4976396;28;20187;-90
2021/09/20 01:31:14;;;;;;;11.90;8.75;;;16.30;72.00;;;;;;4975455;28;20220;-90
2021/09/20 01:33:40;;;;;;;9.73;8.00;;;16.20;71.90;;;;;;4975611;28;20231;-90
2021/09/20 01:36:07;;;;;;;12.13;7.77;;;16.20;72.00;;;;;;4976415;28;20176;-90
2021/09/20 01:38:32;;;;;;;10.18;8.20;;;16.20;72.00;;;;;;4975346;28;20666;-89
2021/09/20 01:40:58;;;;;;;10.27;8.37;;;16.10;72.20;;;;;;4976459;28;20258;-90
2021/09/20 01:43:24;;;;;;;10.57;8.90;;;16.20;72.20;;;;;;4976661;28;20528;-90
2021/09/20 01:45:50;;;;;;;11.37;8.53;;;16.10;72.50;;;;;;4975765;28;20551;-90
2021/09/20 01:48:23;;;;;;;13.57;8.83;;;16.10;72.20;;;;;;4976823;28;20624;-90
2021/09/20 01:50:49;;;;;;;13.27;10.10;;;16.00;72.20;;;;;;4976952;28;20176;-90
2021/09/20 01:53:16;;;;;;;11.93;8.30;;;15.90;72.30;;;;;;4976050;28;20227;-90
2021/09/20 01:55:42;;;;;;;10.13;7.80;;;16.00;72.70;;;;;;4975780;28;20935;-90
2021/09/20 01:58:12;;;;;;;17.52;9.73;;;15.90;72.60;;;;;;4975722;28;20287;-90
2021/09/20 02:00:43;;;;;;;13.52;9.65;;;15.90;72.80;;;;;;4980655;28;20695;-91
2021/09/20 02:03:10;;;;;;;17.48;9.95;;;15.80;72.60;;;;;;4965768;28;20208;-90
2021/09/20 02:05:36;;;;;;;11.90;9.50;;;15.70;73.00;;;;;;4997419;28;20175;-88
2021/09/20 02:08:03;;;;;;;14.17;9.13;;;15.70;73.20;;;;;;4981131;28;20184;-90
2021/09/20 02:10:39;;;;;;;;;;;;;;;;;;;;;
2021/09/20 02:13:08;;;;;;;18.77;8.90;;;15.70;73.30;;;;;;4996340;28;20227;-90
2021/09/20 02:15:36;;;;;;;19.35;9.73;;;15.70;73.10;;;;;;4995428;28;20232;-90
2021/09/20 02:18:02;;;;;;;11.57;10.05;;;15.60;73.20;;;;;;4961744;28;20667;-91
2021/09/20 02:20:30;;;;;;;10.90;8.20;;;15.60;73.30;;;;;;4974522;28;20233;-90
2021/09/20 02:22:55;;;;;;;13.32;10.57;;;15.50;73.30;;;;;;4975666;28;20997;-90
2021/09/20 02:25:23;;;;;;;11.83;8.67;;;15.60;73.40;;;;;;4975264;28;20208;-90
2021/09/20 02:27:49;;;;;;;20.00;10.15;;;15.50;73.20;;;;;;4959797;28;20180;-90
2021/09/20 02:30:15;;;;;;;14.23;9.33;;;15.50;73.30;;;;;;4980720;28;20187;-90
2021/09/20 02:32:48;;;;;;;10.90;9.30;;;15.50;73.40;;;;;;4965664;28;20205;-89
2021/09/20 02:35:15;;;;;;;12.40;8.30;;;15.50;73.30;;;;;;4956382;28;20180;-90
2021/09/20 02:37:41;;;;;;;21.33;9.65;;;15.50;73.50;;;;;;4956743;28;20176;-89
2021/09/20 02:40:19;;;;;;;14.50;8.48;;;15.60;73.30;;;;;;4955435;28;20219;-90
2021/09/20 02:42:45;;;;;;;13.40;9.65;;;15.70;73.20;;;;;;4955968;28;20239;-90
2021/09/20 02:45:12;;;;;;;13.90;9.37;;;15.70;73.10;;;;;;4955356;28;20291;-90
2021/09/20 02:47:40;;;;;;;11.15;8.90;;;15.70;72.80;;;;;;4955167;28;20172;-89
2021/09/20 02:50:10;;;;;;;13.18;9.25;;;15.80;72.70;;;;;;4955739;28;20180;-89
2021/09/20 02:52:37;;;;;;;12.63;8.40;;;15.80;72.30;;;;;;4954688;28;20204;-90
2021/09/20 02:55:04;;;;;;;12.77;9.10;;;15.80;72.20;;;;;;4957293;28;20184;-89
2021/09/20 02:57:30;;;;;;;12.85;8.95;;;15.80;72.20;;;;;;4955414;28;20248;-89
2021/09/20 02:59:56;;;;;;;14.00;9.63;;;15.80;72.00;;;;;;4954834;28;20316;-89
2021/09/20 03:02:21;;;;;;;14.77;9.67;;;15.80;72.00;;;;;;4938898;28;20479;-90
2021/09/20 03:04:47;;;;;;;14.27;8.60;;;15.90;72.10;;;;;;4955463;28;20424;-91
2021/09/20 03:07:15;;;;;;;11.07;8.77;;;15.80;72.00;;;;;;4956207;28;20562;-91
2021/09/20 03:09:43;;;;;;;17.60;10.32;;;15.80;71.70;;;;;;4955654;28;20192;-91
2021/09/20 03:12:09;;;;;;;15.85;10.10;;;15.90;71.80;;;;;;4958625;28;20180;-91
2021/09/20 03:14:35;;;;;;;19.30;10.50;;;15.80;71.80;;;;;;4976056;28;20184;-91
2021/09/20 03:17:03;;;;;;;16.50;9.23;;;15.80;71.90;;;;;;4974635;28;20186;-91
2021/09/20 03:19:29;;;;;;;15.35;9.18;;;15.80;71.90;;;;;;4975171;28;20466;-91
2021/09/20 03:21:57;;;;;;;16.43;10.13;;;15.80;71.80;;;;;;4974946;28;20560;-90
2021/09/20 03:24:23;;;;;;;12.65;9.48;;;15.80;72.00;;;;;;4974565;28;20200;-90
2021/09/20 03:26:48;;;;;;;13.80;9.90;;;15.80;71.60;;;;;;4974841;28;20285;-90
2021/09/20 03:29:14;;;;;;;10.10;8.10;;;15.80;71.40;;;;;;4973626;28;20327;-90
2021/09/20 03:31:43;;;;;;;14.37;12.40;;;15.70;71.40;;;;;;4974180;28;20518;-90
2021/09/20 03:34:12;;;;;;;13.85;8.35;;;15.80;71.40;;;;;;4954222;28;20205;-90
2021/09/20 03:36:37;;;;;;;11.88;9.43;;;15.60;71.30;;;;;;4965728;28;20270;-90
2021/09/20 03:39:03;;;;;;;19.60;11.13;;;15.60;71.50;;;;;;4974208;28;20370;-90
2021/09/20 03:41:32;;;;;;;12.60;9.40;;;15.50;71.60;;;;;;4973579;28;20247;-90
2021/09/20 03:43:58;;;;;;;14.15;9.30;;;15.50;71.70;;;;;;4973923;28;20459;-90
2021/09/20 03:46:23;;;;;;;13.13;9.40;;;15.60;71.70;;;;;;4975556;28;20180;-90
2021/09/20 03:48:52;;;;;;;11.43;8.77;;;15.50;71.50;;;;;;4973464;28;20566;-90
2021/09/20 03:51:20;;;;;;;15.43;9.18;;;15.60;71.30;;;;;;4975221;28;20675;-90
2021/09/20 03:53:46;;;;;;;14.15;9.40;;;15.70;71.30;;;;;;4974296;28;20218;-90
2021/09/20 03:56:12;;;;;;;15.40;9.70;;;15.60;71.00;;;;;;4974216;28;20266;-90
2021/09/20 03:58:40;;;;;;;13.57;8.83;;;15.60;71.20;;;;;;4974010;28;20199;-90
2021/09/20 04:01:06;;;;;;;12.57;8.65;;;15.50;71.20;;;;;;4973666;28;20554;-90
2021/09/20 04:03:34;;;;;;;15.20;10.30;;;15.40;71.40;;;;;;4973091;28;20204;-90
2021/09/20 04:06:00;;;;;;;14.93;9.77;;;15.50;71.30;;;;;;4973342;28;20639;-90
2021/09/20 04:08:31;;;;;;;14.27;10.40;;;15.50;71.40;;;;;;4973356;28;20183;-90
2021/09/20 04:10:59;;;;;;;11.07;8.88;;;15.50;71.20;;;;;;4974525;28;20207;-91
2021/09/20 04:13:25;;;;;;;13.93;9.32;;;15.50;71.10;;;;;;4973251;28;20285;-91
2021/09/20 04:15:53;;;;;;;14.30;9.25;;;15.50;71.10;;;;;;4975338;28;20176;-90
2021/09/20 04:18:24;;;;;;;15.70;10.00;;;15.40;71.00;;;;;;4960689;28;20188;-91
2021/09/20 04:20:51;;;;;;;15.07;8.45;;;15.40;71.20;;;;;;4976404;28;20258;-90
2021/09/20 04:23:19;;;;;;;15.57;9.52;;;15.30;71.40;;;;;;4973326;28;20204;-90
2021/09/20 04:25:45;;;;;;;12.70;9.30;;;15.30;71.30;;;;;;4974015;28;20191;-90
2021/09/20 04:28:11;;;;;;;17.83;10.90;;;15.30;71.50;;;;;;4973544;28;20758;-90
2021/09/20 04:30:37;;;;;;;12.93;9.00;;;15.10;71.50;;;;;;4974283;28;20191;-90
2021/09/20 04:33:05;;;;;;;15.17;10.43;;;15.10;72.00;;;;;;4972996;28;20274;-90
2021/09/20 04:35:34;;;;;;;15.70;10.35;;;14.80;72.20;;;;;;4973331;28;20643;-90
2021/09/20 04:37:59;;;;;;;15.95;11.20;;;14.80;72.80;;;;;;4975943;28;20188;-90
2021/09/20 04:40:45;;;;;;;15.17;9.10;;;14.90;73.10;;;;;;4976594;28;20199;-91
2021/09/20 04:43:27;;;;;;;18.05;10.07;;;14.70;73.00;;;;;;4976239;28;20226;-91
2021/09/20 04:46:03;;;;;;;17.30;10.18;;;14.90;73.20;;;;;;4962161;28;20188;-90
2021/09/20 04:48:49;;;;;;;13.35;9.00;;;14.70;73.20;;;;;;4958008;28;20172;-91
2021/09/20 04:51:14;;;;;;;15.82;10.38;;;14.60;73.20;;;;;;4953486;28;20197;-90
2021/09/20 04:53:40;;;;;;;14.20;8.50;;;14.60;73.40;;;;;;4937641;29;20197;-90
2021/09/20 04:56:06;;;;;;;13.67;9.27;;;14.60;73.20;;;;;;4938335;29;20420;-90
2021/09/20 04:58:32;;;;;;;14.03;9.87;;;14.60;73.40;;;;;;4938022;29;20185;-90
2021/09/20 05:00:57;;;;;;;12.50;9.03;;;14.80;73.20;;;;;;4938094;29;20614;-90
2021/09/20 05:03:24;;;;;;;11.47;8.90;;;14.80;72.80;;;;;;4937431;29;20608;-90
2021/09/20 05:06:10;;;;;;;12.48;9.05;;;14.80;72.50;;;;;;4937781;29;20182;-92
2021/09/20 05:08:36;;;;;;;14.00;10.20;;;14.80;72.30;;;;;;4941990;29;20263;-91
2021/09/20 05:11:01;;;;;;;14.90;9.93;;;14.80;72.10;;;;;;4938898;28;20724;-89
2021/09/20 05:13:27;;;;;;;16.90;10.20;;;14.90;72.30;;;;;;4938096;29;20208;-90
2021/09/20 05:15:53;;;;;;;16.20;11.43;;;14.80;71.90;;;;;;4938507;29;20185;-89
2021/09/20 05:18:18;;;;;;;16.27;10.43;;;14.70;72.00;;;;;;4939559;29;20216;-91
2021/09/20 05:20:44;;;;;;;21.13;11.20;;;14.80;72.00;;;;;;4939951;29;20650;-90
2021/09/20 05:23:10;;;;;;;18.03;10.63;;;14.80;72.00;;;;;;4937602;29;20205;-90
2021/09/20 05:25:36;;;;;;;17.10;10.13;;;14.60;72.10;;;;;;4939604;29;20181;-91
2021/09/20 05:28:03;;;;;;;12.95;9.88;;;14.60;72.40;;;;;;4939056;29;20244;-91
2021/09/20 05:30:29;;;;;;;20.55;11.88;;;14.60;72.50;;;;;;4939584;29;20185;-91
2021/09/20 05:32:54;;;;;;;19.03;11.33;;;14.60;72.40;;;;;;4949922;28;20200;-91
2021/09/20 05:35:20;;;;;;;14.50;9.70;;;14.60;72.50;;;;;;4959972;28;20420;-90
2021/09/20 05:37:46;;;;;;;14.27;9.67;;;14.50;72.60;;;;;;4978135;28;20183;-90
2021/09/20 05:40:13;;;;;;;13.13;9.70;;;14.50;72.70;;;;;;4978469;28;20238;-90
2021/09/20 05:42:39;;;;;;;14.23;10.32;;;14.40;72.70;;;;;;4977214;28;20679;-91
2021/09/20 05:45:05;;;;;;;13.60;10.80;;;14.50;72.80;;;;;;4969348;28;20204;-90
2021/09/20 05:47:31;;;;;;;15.25;9.40;;;14.60;72.80;;;;;;4973570;28;20426;-91
2021/09/20 05:49:57;;;;;;;15.38;11.52;;;14.50;72.90;;;;;;4958186;28;20192;-91
2021/09/20 05:52:25;;;;;;;16.27;11.33;;;14.70;72.90;;;;;;4961949;28;20196;-90
2021/09/20 05:54:50;;;;;;;17.92;11.95;;;14.60;72.80;;;;;;4944076;29;20219;-91
2021/09/20 05:57:16;;;;;;;16.10;11.30;;;14.70;73.10;;;;;;4963564;29;20184;-91
2021/09/20 05:59:42;;;;;;;18.60;11.90;;;14.70;72.90;;;;;;4962356;29;20291;-90
2021/09/20 06:02:08;;;;;;;17.87;11.53;;;14.80;72.60;;;;;;4959288;28;20173;-91
2021/09/20 06:04:36;;;;;;;16.53;11.33;;;14.80;72.00;;;;;;4965063;29;20204;-90
2021/09/20 06:07:02;;;;;;;16.15;11.05;;;14.90;72.00;;;;;;4978283;28;20180;-91
2021/09/20 06:09:34;;;;;;;15.63;10.33;;;15.00;71.40;;;;;;4978613;28;20253;-90
2021/09/20 06:11:59;;;;;;;17.45;11.98;;;15.10;71.20;;;;;;4977519;29;20444;-90
2021/09/20 06:14:25;;;;;;;16.23;11.03;;;15.20;71.00;;;;;;4977098;28;20208;-91
2021/09/20 06:16:51;;;;;;;19.23;11.03;;;15.30;70.50;;;;;;4976715;29;20196;-91
2021/09/20 06:19:19;;;;;;;14.60;11.67;;;15.20;69.90;;;;;;4976148;29;20236;-91
2021/09/20 06:21:47;;;;;;;16.23;9.98;;;15.30;70.40;;;;;;4975113;28;20176;-91
2021/09/20 06:24:15;;;;;;;16.63;10.57;;;15.40;70.70;;;;;;4976285;28;20251;-91
2021/09/20 06:26:40;;;;;;;16.88;11.25;;;15.50;70.90;;;;;;4992844;28;20180;-90
2021/09/20 06:29:10;;;;;;;22.07;11.57;;;15.50;69.80;;;;;;4980211;28;20227;-92
2021/09/20 06:31:56;;;;;;;14.60;10.00;;;15.50;69.10;;;;;;4979398;28;20191;-91
2021/09/20 06:34:24;;;;;;;16.58;11.80;;;15.40;69.20;;;;;;4958626;28;20215;-90
2021/09/20 06:36:50;;;;;;;18.10;12.43;;;15.40;69.50;;;;;;4960411;28;20239;-91
2021/09/20 06:39:28;;;;;;;20.67;10.55;;;15.40;69.70;;;;;;4958265;28;20212;-91
2021/09/20 06:41:54;;;;;;;17.13;10.95;;;15.40;70.20;;;;;;4958601;28;20180;-91
2021/09/20 06:44:20;;;;;;;19.67;11.73;;;15.60;70.20;;;;;;4960321;28;20224;-91
2021/09/20 06:46:54;;;;;;;15.32;9.75;;;15.60;69.00;;;;;;4960201;28;20479;-90
2021/09/20 06:49:22;;;;;;;17.58;11.57;;;15.50;69.10;;;;;;4967580;28;20184;-91
2021/09/20 06:51:50;;;;;;;18.35;11.73;;;15.70;68.90;;;;;;4977621;28;20203;-91
2021/09/20 06:54:19;;;;;;;19.52;10.35;;;15.70;68.40;;;;;;4977652;28;20212;-91
2021/09/20 06:56:45;;;;;;;20.27;12.02;;;15.80;68.30;;;;;;4978892;28;20787;-91
2021/09/20 06:59:11;;;;;;;16.65;11.00;;;15.80;68.00;;;;;;4978256;28;20212;-90
2021/09/20 07:01:36;;;;;;;23.90;11.20;;;15.80;67.60;;;;;;4979233;28;20183;-91
2021/09/20 07:04:02;;;;;;;24.47;12.73;;;15.80;67.60;;;;;;4979738;28;20211;-91
2021/09/20 07:06:35;;;;;;;25.57;12.10;;;16.00;67.00;;;;;;4964005;28;20422;-91
2021/09/20 07:09:09;;;;;;;20.15;10.77;;;15.80;66.60;;;;;;4980757;28;20441;-91
2021/09/20 07:11:35;;;;;;;22.17;12.00;;;15.50;66.50;;;;;;4981374;28;20183;-91
2021/09/20 07:14:02;;;;;;;18.02;12.57;;;15.60;67.00;;;;;;4981710;28;20211;-91
2021/09/20 07:16:32;;;;;;;18.05;11.73;;;15.70;67.20;;;;;;4980865;28;20210;-90
2021/09/20 07:18:59;;;;;;;18.90;11.48;;;15.80;67.40;;;;;;4982133;28;20255;-91
2021/09/20 07:21:25;;;;;;;18.27;10.02;;;15.70;66.40;;;;;;4982972;28;20210;-91
2021/09/20 07:24:02;;;;;;;;;;;;;;;;;;;;;
2021/09/20 07:26:32;;;;;;;20.40;10.63;;;15.80;66.00;;;;;;4949125;28;20236;-91
2021/09/20 07:29:01;;;;;;;21.45;11.55;;;15.90;65.70;;;;;;4961309;28;20263;-91
2021/09/20 07:31:27;;;;;;;25.90;12.60;;;15.90;65.40;;;;;;4961656;28;20194;-91
2021/09/20 07:33:54;;;;;;;19.92;12.00;;;16.10;64.50;;;;;;4962341;28;20211;-91
2021/09/20 07:36:22;;;;;;;19.52;11.77;;;16.10;64.70;;;;;;4970135;28;20199;-91
2021/09/20 07:38:48;;;;;;;20.00;12.45;;;16.00;64.50;;;;;;4981496;28;20204;-91
2021/09/20 07:41:17;;;;;;;16.50;9.50;;;16.10;64.20;;;;;;4981062;28;20187;-91
2021/09/20 07:43:45;;;;;;;16.70;11.02;;;16.10;64.30;;;;;;4980679;28;20478;-91
2021/09/20 07:46:13;;;;;;;17.27;10.45;;;16.20;64.20;;;;;;4981874;28;20201;-91
2021/09/20 07:48:38;;;;;;;15.60;10.50;;;16.20;64.40;;;;;;4982403;28;20274;-91
2021/09/20 07:51:04;;;;;;;17.53;11.00;;;16.30;64.20;;;;;;4980559;28;20242;-91
2021/09/20 07:53:35;;;;;;;16.80;11.20;;;16.10;64.20;;;;;;4981337;28;20494;-91
2021/09/20 07:56:03;;;;;;;17.13;10.35;;;16.30;64.60;;;;;;4980207;28;20187;-91
2021/09/20 07:58:30;;;;;;;22.92;11.80;;;16.50;63.90;;;;;;4981529;28;20255;-91
2021/09/20 08:00:57;;;;;;;18.48;12.27;;;16.40;63.10;;;;;;4978218;28;20184;-91
2021/09/20 08:03:26;;;;;;;16.52;11.15;;;16.20;63.40;;;;;;4960397;28;20684;-91
2021/09/20 08:06:00;;;;;;;15.45;10.60;;;16.20;63.60;;;;;;4961550;28;20184;-91
2021/09/20 08:08:30;;;;;;;18.40;11.95;;;16.20;63.50;;;;;;4959976;28;20187;-90
2021/09/20 08:11:16;;;;;;;20.13;11.90;;;16.30;62.60;;;;;;4960957;28;20173;-90
2021/09/20 08:13:44;;;;;;;16.63;12.05;;;16.30;62.20;;;;;;4963134;28;20215;-91
2021/09/20 08:16:13;;;;;;;16.10;11.63;;;16.20;61.60;;;;;;4963833;28;20177;-91
2021/09/20 08:18:40;;;;;;;18.67;11.60;;;16.10;61.70;;;;;;4964660;28;20606;-91
2021/09/20 08:21:06;;;;;;;18.90;13.50;;;16.10;61.80;;;;;;4965748;28;20259;-90
2021/09/20 08:23:36;;;;;;;19.08;11.68;;;16.10;62.10;;;;;;4965985;28;20748;-90
2021/09/20 08:26:08;;;;;;;17.33;11.55;;;16.30;61.70;;;;;;4963454;28;20571;-91
2021/09/20 08:28:36;;;;;;;18.00;11.35;;;16.30;61.90;;;;;;4964047;28;20204;-90
2021/09/20 08:31:02;;;;;;;17.13;11.48;;;16.40;61.30;;;;;;4964606;28;20180;-90
2021/09/20 08:33:29;;;;;;;20.80;11.77;;;16.40;61.40;;;;;;4962766;28;20268;-90
2021/09/20 08:36:00;;;;;;;19.15;11.23;;;16.60;61.10;;;;;;4972419;28;20205;-90
2021/09/20 08:38:28;;;;;;;15.63;10.77;;;16.70;60.70;;;;;;4982544;28;20266;-90
2021/09/20 08:40:54;;;;;;;18.67;11.73;;;16.70;60.30;;;;;;4983225;28;20216;-91
2021/09/20 08:43:21;;;;;;;16.60;11.47;;;16.70;60.30;;;;;;4984255;28;20223;-90
2021/09/20 08:45:46;;;;;;;17.55;12.55;;;16.80;60.10;;;;;;4982665;28;20437;-90
2021/09/20 08:48:13;;;;;;;18.67;12.30;;;16.90;60.10;;;;;;4985542;28;20254;-90
2021/09/20 08:50:42;;;;;;;16.08;11.60;;;17.00;59.60;;;;;;4985459;28;20211;-90
2021/09/20 08:53:09;;;;;;;15.82;10.50;;;17.10;59.00;;;;;;4986987;28;20403;-90
2021/09/20 08:55:36;;;;;;;17.65;11.80;;;17.10;58.70;;;;;;4988782;28;20183;-91
2021/09/20 08:58:06;;;;;;;15.27;9.88;;;17.00;58.70;;;;;;4988773;28;20187;-91
2021/09/20 09:00:32;;;;;;;16.50;10.98;;;17.00;57.90;;;;;;4972658;28;20196;-91
2021/09/20 09:03:02;;;;;;;17.95;11.55;;;16.90;58.20;;;;;;4987386;28;20246;-90
2021/09/20 09:05:35;;;;;;;18.35;12.18;;;17.00;58.70;;;;;;4987625;28;20215;-91
2021/09/20 09:08:14;;;;;;;16.75;10.50;;;16.80;58.00;;;;;;4989783;28;20176;-90
2021/09/20 09:10:40;;;;;;;13.90;10.60;;;16.90;58.00;;;;;;4988695;28;20247;-90
2021/09/20 09:13:18;;;;;;;;;;;;;;;;;;;;;
2021/09/20 09:15:50;;;;;;;22.60;12.23;;;16.80;58.10;;;;;;4989397;28;20424;-90
2021/09/20 09:18:16;;;;;;;17.52;10.85;;;16.80;58.80;;;;;;4985994;28;20524;-91
2021/09/20 09:20:45;;;;;;;19.43;10.93;;;17.00;59.30;;;;;;4986407;28;20218;-90
2021/09/20 09:23:13;;;;;;;16.48;10.25;;;17.10;59.10;;;;;;4984033;28;20510;-90
2021/09/20 09:25:44;;;;;;;17.25;10.70;;;17.20;59.60;;;;;;4971198;28;20188;-90
2021/09/20 09:28:19;;;;;;;16.10;10.80;;;17.30;58.50;;;;;;4958531;28;20700;-91
2021/09/20 09:31:04;;;;;;;;;;;;;;;;;;;;;
2021/09/20 09:33:56;;;;;;;17.02;10.10;;;17.40;57.30;;;;;;4943049;29;20276;-90
2021/09/20 09:36:33;;;;;;;13.10;10.20;;;17.50;57.50;;;;;;4961823;28;20368;-90
2021/09/20 09:39:01;;;;;;;13.30;10.45;;;17.50;57.10;;;;;;4962427;28;20207;-91
2021/09/20 09:41:53;;;;;;;15.57;10.57;;;17.60;56.60;;;;;;4960772;28;20180;-90
2021/09/20 09:44:31;;;;;;;18.88;10.40;;;17.50;56.40;;;;;;4961109;28;20238;-90
2021/09/20 09:46:58;;;;;;;14.80;10.98;;;17.70;56.90;;;;;;4961066;28;20175;-91
2021/09/20 09:49:25;;;;;;;20.70;11.20;;;17.50;56.60;;;;;;4963713;28;20187;-90
2021/09/20 09:51:55;;;;;;;16.27;9.88;;;17.50;56.30;;;;;;4962341;28;20185;-90
2021/09/20 09:54:35;;;;;;;14.73;8.82;;;17.50;56.90;;;;;;4961174;28;20212;-90
2021/09/20 09:57:11;;;;;;;27.08;10.43;;;17.60;57.50;;;;;;4963456;28;20632;-90
2021/09/20 09:59:37;;;;;;;16.17;10.60;;;17.60;58.50;;;;;;4961271;28;20307;-91
2021/09/20 10:02:19;;;;;;;15.00;10.33;;;17.60;56.90;;;;;;4961170;28;20172;-90
2021/09/20 10:04:56;;;;;;;14.32;9.48;;;17.70;56.70;;;;;;4962973;28;20416;-91
2021/09/20 10:07:28;;;;;;;14.13;9.52;;;17.70;56.70;;;;;;4961279;28;20180;-91
2021/09/20 10:09:57;;;;;;;14.57;9.65;;;17.90;55.70;;;;;;4962916;28;20191;-91
2021/09/20 10:12:30;;;;;;;19.00;8.70;;;18.00;55.20;;;;;;4960491;28;20201;-91
2021/09/20 10:15:00;;;;;;;12.95;9.95;;;18.10;55.10;;;;;;4961527;28;20176;-91
2021/09/20 10:17:54;;;;;;;15.48;9.73;;;18.10;54.30;;;;;;4961159;28;20180;-91
2021/09/20 10:20:27;;;;;;;10.20;8.10;;;18.30;54.10;;;;;;4961640;28;20201;-91
2021/09/20 10:22:59;;;;;;;14.15;8.07;;;18.30;54.00;;;;;;4961588;28;20215;-91
2021/09/20 10:25:31;;;;;;;12.68;8.38;;;18.40;53.50;;;;;;4959507;28;20184;-91
2021/09/20 10:28:02;;;;;;;12.65;8.95;;;18.40;52.60;;;;;;4977887;28;20186;-91
2021/09/20 10:30:31;;;;;;;16.23;9.48;;;18.30;53.70;;;;;;4977985;28;20274;-91
2021/09/20 10:33:03;;;;;;;12.65;8.73;;;18.30;52.70;;;;;;4951255;29;20204;-91
2021/09/20 10:35:51;;;;;;;10.70;8.73;;;18.40;52.90;;;;;;4960425;28;20284;-91
2021/09/20 10:38:29;;;;;;;13.90;9.88;;;18.30;52.60;;;;;;4960724;28;20224;-90
2021/09/20 10:41:21;;;;;;;14.02;9.68;;;18.50;52.80;;;;;;4961584;28;20675;-91
2021/09/20 10:44:08;;;;;;;17.17;10.75;;;18.50;52.50;;;;;;4959291;28;20623;-91
2021/09/20 10:46:37;;;;;;;13.98;9.52;;;18.40;52.50;;;;;;4961836;29;20212;-91
2021/09/20 10:49:19;;;;;;;10.27;7.85;;;18.60;51.90;;;;;;4960849;28;20220;-91
2021/09/20 10:52:10;;;;;;;13.48;9.60;;;18.70;51.40;;;;;;4961211;28;20172;-91
2021/09/20 10:54:36;;;;;;;13.85;10.35;;;18.50;52.20;;;;;;4974927;28;20185;-91
2021/09/20 10:57:14;;;;;;;17.13;9.43;;;18.40;53.20;;;;;;4977015;28;20189;-90
2021/09/20 10:59:40;;;;;;;13.45;9.07;;;18.30;54.20;;;;;;4961145;28;20231;-91
2021/09/20 11:02:27;;;;;;;10.85;7.82;;;18.30;53.80;;;;;;4977451;28;20271;-90
2021/09/20 11:05:08;;;;;;;13.75;8.30;;;18.20;53.40;;;;;;4962794;28;20168;-91
2021/09/20 11:07:52;;;;;;;14.70;9.00;;;18.40;52.50;;;;;;4961022;28;20210;-91
2021/09/20 11:10:41;;;;;;;12.05;8.23;;;18.60;51.60;;;;;;4964059;28;20620;-91
2021/09/20 11:13:07;;;;;;;15.00;9.55;;;18.70;51.20;;;;;;4962486;28;20197;-91
2021/09/20 11:15:41;;;;;;;13.38;9.80;;;18.80;51.20;;;;;;4971531;28;20270;-90
2021/09/20 11:18:29;;;;;;;13.75;9.70;;;19.10;51.40;;;;;;4982488;28;20234;-91
2021/09/20 11:21:06;;;;;;;17.08;9.80;;;19.20;50.50;;;;;;4980469;28;20205;-90
2021/09/20 11:23:35;;;;;;;14.68;9.20;;;19.60;50.00;;;;;;4980932;28;20225;-91
2021/09/20 11:26:34;;;;;;;14.50;10.05;;;19.70;49.60;;;;;;4980057;28;20195;-91
2021/09/20 11:29:07;;;;;;;12.45;10.57;;;19.70;49.60;;;;;;4980668;28;20188;-91
2021/09/20 11:31:35;;;;;;;13.57;9.88;;;19.70;48.90;;;;;;4980094;28;20587;-91
2021/09/20 11:34:13;;;;;;;14.05;10.85;;;19.60;49.70;;;;;;4962114;28;20570;-90
2021/09/20 11:36:38;;;;;;;13.07;10.35;;;19.40;50.30;;;;;;4974589;28;20183;-91
2021/09/20 11:39:14;;;;;;;16.60;11.23;;;19.40;51.20;;;;;;4981279;28;20222;-91
2021/09/20 11:41:49;;;;;;;14.63;10.57;;;19.30;51.10;;;;;;4982139;28;20422;-91
2021/09/20 11:44:27;;;;;;;15.75;11.70;;;19.20;51.30;;;;;;4980074;28;20565;-91
2021/09/20 11:46:54;;;;;;;16.80;10.88;;;19.40;51.00;;;;;;4982565;28;20176;-91
2021/09/20 11:49:20;;;;;;;16.85;11.30;;;19.40;50.60;;;;;;4985079;28;20183;-91
2021/09/20 11:52:04;;;;;;;19.73;12.67;;;19.20;50.60;;;;;;4984325;28;20179;-91
2021/09/20 11:54:38;;;;;;;16.35;12.00;;;19.10;51.90;;;;;;4986735;28;20168;-91
2021/09/20 11:57:28;;;;;;;14.40;10.40;;;19.10;52.70;;;;;;4985369;28;20183;-90
2021/09/20 12:00:00;;;;;;;19.20;12.00;;;18.80;53.80;;;;;;4986664;28;20672;-91
2021/09/20 12:02:28;;;;;;;17.67;12.00;;;18.80;53.80;;;;;;4985593;28;20619;-91
2021/09/20 12:04:53;;;;;;;15.70;11.30;;;18.90;53.10;;;;;;4992817;28;20179;-91
2021/09/20 12:07:31;;;;;;;16.70;10.73;;;19.00;52.60;;;;;;4997434;28;20235;-90
2021/09/20 12:10:01;;;;;;;16.88;10.50;;;19.20;52.20;;;;;;4997627;28;20194;-90
2021/09/20 12:12:36;;;;;;;14.80;10.93;;;19.20;51.70;;;;;;4997995;28;20254;-90
2021/09/20 12:15:13;;;;;;;16.30;11.90;;;19.30;51.70;;;;;;4995422;28;20179;-91
2021/09/20 12:17:52;;;;;;;17.33;11.88;;;19.20;52.00;;;;;;4984392;28;20214;-91
2021/09/20 12:20:24;;;;;;;16.10;11.18;;;19.20;51.20;;;;;;4967516;28;20265;-91
2021/09/20 12:22:52;;;;;;;16.48;10.75;;;19.10;51.20;;;;;;4982003;28;20207;-91
2021/09/20 12:25:34;;;;;;;16.70;10.90;;;19.30;51.40;;;;;;4982906;28;20242;-91
2021/09/20 12:28:04;;;;;;;15.00;10.35;;;19.50;51.10;;;;;;4945051;29;20497;-91
2021/09/20 12:30:32;;;;;;;15.57;10.80;;;19.50;50.60;;;;;;4945179;29;20232;-91
2021/09/20 12:33:08;;;;;;;11.75;10.00;;;19.50;50.30;;;;;;4954637;28;20204;-91
2021/09/20 12:35:34;;;;;;;15.35;11.20;;;19.60;50.20;;;;;;4965400;28;20227;-90
2021/09/20 12:38:34;;;;;;;16.75;11.52;;;19.50;51.00;;;;;;4965530;28;20283;-91
2021/09/20 12:41:10;;;;;;;22.23;11.50;;;19.70;50.90;;;;;;4941356;28;20200;-91
2021/09/20 12:43:40;;;;;;;15.93;10.95;;;19.50;50.40;;;;;;4981328;28;20222;-91
2021/09/20 12:46:14;;;;;;;15.75;10.10;;;19.50;50.80;;;;;;4966359;28;20187;-91
2021/09/20 12:48:46;;;;;;;15.60;11.45;;;19.60;50.40;;;;;;4981924;28;20218;-91